createdAt,value
2018-07-28T00:00:09.347Z,0
2018-07-28T00:01:18.211Z,0
2018-07-28T00:02:27.353Z,0
2018-07-28T00:03:36.494Z,0
2018-07-28T00:04:45.358Z,0
2018-07-28T00:05:54.496Z,0
2018-07-28T00:07:03.641Z,0
2018-07-28T00:08:13.061Z,0
2018-07-28T00:09:21.928Z,0
2018-07-28T00:10:30.794Z,0
2018-07-28T00:11:39.665Z,0
2018-07-28T00:12:48.531Z,0
2018-07-28T00:13:57.397Z,0
2018-07-28T00:15:06.543Z,0
2018-07-28T00:16:15.967Z,0
2018-07-28T00:17:24.833Z,0
2018-07-28T00:18:33.703Z,0
2018-07-28T00:19:42.568Z,0
2018-07-28T00:20:51.858Z,0
2018-07-28T00:22:00.726Z,0
2018-07-28T00:23:09.868Z,0
2018-07-28T00:24:18.731Z,0
2018-07-28T00:25:27.599Z,0
2018-07-28T00:26:36.613Z,0
2018-07-28T00:27:45.476Z,0
2018-07-28T00:28:54.339Z,0
2018-07-28T00:30:03.205Z,0
2018-07-28T00:31:12.072Z,0
2018-07-28T00:32:21.467Z,0
2018-07-28T00:33:30.341Z,0
2018-07-28T00:34:39.801Z,0
2018-07-28T00:35:48.664Z,0
2018-07-28T00:36:57.529Z,0
2018-07-28T00:38:06.401Z,0
2018-07-28T00:39:15.263Z,0
2018-07-28T00:40:24.129Z,0
2018-07-28T00:41:32.992Z,0
2018-07-28T00:42:41.859Z,0
2018-07-28T00:43:50.824Z,0
2018-07-28T00:44:59.690Z,0
2018-07-28T00:46:08.555Z,0
2018-07-28T00:47:17.697Z,0
2018-07-28T00:48:26.563Z,0
2018-07-28T00:49:35.431Z,0
2018-07-28T00:50:44.573Z,0
2018-07-28T00:51:53.722Z,0
2018-07-28T00:53:02.592Z,0
2018-07-28T00:54:11.477Z,0
2018-07-28T00:55:20.721Z,0
2018-07-28T00:56:29.587Z,0
2018-07-28T00:57:38.452Z,0
2018-07-28T00:58:47.315Z,0
2018-07-28T00:59:56.180Z,0
2018-07-28T01:01:05.195Z,0
2018-07-28T01:02:14.061Z,0
2018-07-28T01:03:22.926Z,0
2018-07-28T01:04:31.794Z,0
2018-07-28T01:05:40.934Z,0
2018-07-28T01:06:50.077Z,0
2018-07-28T01:07:58.942Z,0
2018-07-28T01:09:07.808Z,0
2018-07-28T01:10:16.675Z,0
2018-07-28T01:11:25.542Z,0
2018-07-28T01:12:34.500Z,0
2018-07-28T01:13:43.365Z,0
2018-07-28T01:14:52.238Z,0
2018-07-28T01:16:01.376Z,0
2018-07-28T01:17:10.238Z,0
2018-07-28T01:18:19.256Z,0
2018-07-28T01:19:28.114Z,0
2018-07-28T01:20:36.978Z,0
2018-07-28T01:21:45.844Z,0
2018-07-28T01:22:54.709Z,0
2018-07-28T01:24:03.575Z,0
2018-07-28T01:25:12.444Z,0
2018-07-28T01:26:21.305Z,0
2018-07-28T01:27:30.173Z,0
2018-07-28T01:28:39.037Z,0
2018-07-28T01:29:48.002Z,0
2018-07-28T01:30:56.866Z,0
2018-07-28T01:32:05.731Z,0
2018-07-28T01:33:14.594Z,0
2018-07-28T01:34:23.738Z,0
2018-07-28T01:35:33.031Z,0
2018-07-28T01:36:42.177Z,0
2018-07-28T01:37:51.041Z,0
2018-07-28T01:38:59.904Z,0
2018-07-28T01:40:09.056Z,0
2018-07-28T01:41:17.922Z,0
2018-07-28T01:42:27.065Z,0
2018-07-28T01:43:35.929Z,0
2018-07-28T01:44:44.789Z,0
2018-07-28T01:45:53.653Z,0
2018-07-28T01:47:03.064Z,0
2018-07-28T01:48:12.211Z,0
2018-07-28T01:49:21.489Z,0
2018-07-28T01:50:30.326Z,0
2018-07-28T01:51:39.473Z,0
2018-07-28T01:52:48.338Z,0
2018-07-28T01:53:57.476Z,0
2018-07-28T01:55:06.636Z,0
2018-07-28T01:56:15.498Z,0
2018-07-28T01:57:24.367Z,0
2018-07-28T01:58:33.608Z,0
2018-07-28T01:59:42.808Z,0
2018-07-28T02:00:51.667Z,0
2018-07-28T02:02:00.530Z,0
2018-07-28T02:03:09.667Z,0
2018-07-28T02:04:19.175Z,0
2018-07-28T02:05:28.039Z,0
2018-07-28T02:06:36.902Z,0
2018-07-28T02:07:45.765Z,0
2018-07-28T02:08:54.901Z,0
2018-07-28T02:10:04.327Z,0
2018-07-28T02:11:13.471Z,0
2018-07-28T02:12:22.612Z,0
2018-07-28T02:13:31.753Z,0
2018-07-28T02:14:40.891Z,0
2018-07-28T02:15:49.756Z,0
2018-07-28T02:16:58.622Z,0
2018-07-28T02:18:07.488Z,0
2018-07-28T02:19:16.354Z,0
2018-07-28T02:20:25.217Z,0
2018-07-28T02:21:34.185Z,0
2018-07-28T02:22:43.045Z,0
2018-07-28T02:23:52.187Z,0
2018-07-28T02:25:01.051Z,0
2018-07-28T02:26:09.918Z,0
2018-07-28T02:27:18.928Z,0
2018-07-28T02:28:27.790Z,0
2018-07-28T02:29:36.655Z,0
2018-07-28T02:30:45.526Z,0
2018-07-28T02:31:54.400Z,0
2018-07-28T02:33:03.368Z,0
2018-07-28T02:34:12.505Z,0
2018-07-28T02:35:21.652Z,0
2018-07-28T02:36:30.513Z,0
2018-07-28T02:37:40.209Z,0
2018-07-28T02:38:49.350Z,0
2018-07-28T02:39:58.216Z,0
2018-07-28T02:41:07.078Z,0
2018-07-28T02:42:16.501Z,0
2018-07-28T02:43:25.646Z,0
2018-07-28T02:44:34.937Z,0
2018-07-28T02:45:44.359Z,0
2018-07-28T02:46:53.225Z,0
2018-07-28T02:48:02.101Z,0
2018-07-28T02:49:10.964Z,0
2018-07-28T02:50:20.265Z,0
2018-07-28T02:51:29.408Z,0
2018-07-28T02:52:38.276Z,0
2018-07-28T02:53:47.422Z,0
2018-07-28T02:54:56.286Z,0
2018-07-28T02:56:05.300Z,0
2018-07-28T02:57:14.444Z,0
2018-07-28T02:58:23.586Z,4
2018-07-28T02:59:32.454Z,4
2018-07-28T03:00:41.321Z,0
2018-07-28T03:01:50.185Z,0
2018-07-28T03:02:59.325Z,4
2018-07-28T03:04:08.191Z,0
2018-07-28T03:05:17.054Z,4
2018-07-28T03:06:26.196Z,8
2018-07-28T03:07:35.775Z,4
2018-07-28T03:08:44.644Z,4
2018-07-28T03:09:53.509Z,8
2018-07-28T03:11:02.380Z,8
2018-07-28T03:12:11.244Z,12
2018-07-28T03:13:20.465Z,12
2018-07-28T03:14:29.330Z,16
2018-07-28T03:15:38.196Z,12
2018-07-28T03:16:47.349Z,16
2018-07-28T03:17:56.215Z,20
2018-07-28T03:19:05.905Z,24
2018-07-28T03:20:15.050Z,28
2018-07-28T03:21:24.202Z,32
2018-07-28T03:22:33.621Z,36
2018-07-28T03:23:42.493Z,40
2018-07-28T03:24:51.744Z,44
2018-07-28T03:26:00.816Z,48
2018-07-28T03:27:10.232Z,60
2018-07-28T03:28:19.101Z,64
2018-07-28T03:29:28.528Z,72
2018-07-28T03:30:38.097Z,80
2018-07-28T03:31:47.522Z,84
2018-07-28T03:32:56.384Z,96
2018-07-28T03:34:05.248Z,104
2018-07-28T03:35:14.113Z,116
2018-07-28T03:36:23.328Z,128
2018-07-28T03:37:32.191Z,136
2018-07-28T03:38:41.053Z,148
2018-07-28T03:39:49.917Z,160
2018-07-28T03:40:59.329Z,172
2018-07-28T03:42:08.546Z,188
2018-07-28T03:43:17.428Z,200
2018-07-28T03:44:26.269Z,212
2018-07-28T03:45:35.409Z,224
2018-07-28T03:46:44.280Z,240
2018-07-28T03:47:53.568Z,256
2018-07-28T03:49:02.432Z,272
2018-07-28T03:50:11.300Z,292
2018-07-28T03:51:20.166Z,304
2018-07-28T03:52:29.035Z,324
2018-07-28T03:53:38.173Z,340
2018-07-28T03:54:47.037Z,356
2018-07-28T03:55:55.900Z,372
2018-07-28T03:57:04.760Z,388
2018-07-28T03:58:14.178Z,408
2018-07-28T03:59:23.039Z,424
2018-07-28T04:00:31.910Z,440
2018-07-28T04:01:41.330Z,460
2018-07-28T04:02:50.192Z,476
2018-07-28T04:03:59.053Z,496
2018-07-28T04:05:08.344Z,516
2018-07-28T04:06:17.209Z,536
2018-07-28T04:07:26.070Z,552
2018-07-28T04:08:34.936Z,572
2018-07-28T04:09:44.082Z,588
2018-07-28T04:10:53.297Z,608
2018-07-28T04:12:02.162Z,628
2018-07-28T04:13:11.026Z,640
2018-07-28T04:14:20.171Z,656
2018-07-28T04:15:29.030Z,676
2018-07-28T04:16:37.993Z,696
2018-07-28T04:17:46.857Z,716
2018-07-28T04:18:55.755Z,736
2018-07-28T04:20:04.620Z,756
2018-07-28T04:21:13.483Z,776
2018-07-28T04:22:22.624Z,796
2018-07-28T04:23:31.779Z,816
2018-07-28T04:24:40.916Z,832
2018-07-28T04:25:49.780Z,852
2018-07-28T04:26:58.645Z,868
2018-07-28T04:28:07.862Z,888
2018-07-28T04:29:17.002Z,904
2018-07-28T04:30:26.149Z,920
2018-07-28T04:31:35.014Z,940
2018-07-28T04:32:43.876Z,952
2018-07-28T04:33:52.756Z,968
2018-07-28T04:35:02.174Z,988
2018-07-28T04:36:11.318Z,1000
2018-07-28T04:37:20.184Z,1016
2018-07-28T04:38:29.053Z,1032
2018-07-28T04:39:37.916Z,1048
2018-07-28T04:40:46.780Z,1064
2018-07-28T04:41:55.644Z,1080
2018-07-28T04:43:04.504Z,1100
2018-07-28T04:44:13.370Z,1116
2018-07-28T04:45:22.237Z,1132
2018-07-28T04:46:31.104Z,1156
2018-07-28T04:47:39.970Z,1172
2018-07-28T04:48:48.836Z,1192
2018-07-28T04:49:57.986Z,1212
2018-07-28T04:51:07.126Z,1236
2018-07-28T04:52:15.991Z,1252
2018-07-28T04:53:24.859Z,1272
2018-07-28T04:54:33.721Z,1288
2018-07-28T04:55:42.586Z,1304
2018-07-28T04:56:51.603Z,1316
2018-07-28T04:58:00.736Z,1332
2018-07-28T04:59:09.876Z,1344
2018-07-28T05:00:18.741Z,1360
2018-07-28T05:01:27.608Z,1372
2018-07-28T05:02:36.747Z,1384
2018-07-28T05:03:45.617Z,1400
2018-07-28T05:04:54.754Z,1412
2018-07-28T05:06:04.170Z,1424
2018-07-28T05:07:13.343Z,1436
2018-07-28T05:08:22.190Z,1448
2018-07-28T05:09:31.345Z,1468
2018-07-28T05:10:40.213Z,1484
2018-07-28T05:11:49.352Z,1508
2018-07-28T05:12:58.213Z,1528
2018-07-28T05:14:07.504Z,1552
2018-07-28T05:15:16.372Z,1572
2018-07-28T05:16:25.235Z,1596
2018-07-28T05:17:34.371Z,1616
2018-07-28T05:18:43.512Z,1648
2018-07-28T05:19:52.524Z,1676
2018-07-28T05:21:01.392Z,1696
2018-07-28T05:22:10.534Z,1704
2018-07-28T05:23:19.400Z,1720
2018-07-28T05:24:28.544Z,1728
2018-07-28T05:25:37.410Z,1744
2018-07-28T05:26:46.273Z,1776
2018-07-28T05:27:55.136Z,1852
2018-07-28T05:29:04.000Z,1960
2018-07-28T05:30:12.867Z,2028
2018-07-28T05:31:22.158Z,2048
2018-07-28T05:32:31.022Z,2024
2018-07-28T05:33:40.175Z,1936
2018-07-28T05:34:49.043Z,1872
2018-07-28T05:35:58.181Z,1812
2018-07-28T05:37:07.250Z,1776
2018-07-28T05:38:16.827Z,1740
2018-07-28T05:39:25.690Z,1688
2018-07-28T05:40:34.832Z,1596
2018-07-28T05:41:43.695Z,1596
2018-07-28T05:42:52.559Z,1600
2018-07-28T05:44:01.429Z,1540
2018-07-28T05:45:10.572Z,1532
2018-07-28T05:46:19.439Z,1476
2018-07-28T05:47:28.307Z,1504
2018-07-28T05:48:37.603Z,1500
2018-07-28T05:49:46.463Z,1508
2018-07-28T05:50:55.327Z,1536
2018-07-28T05:52:04.191Z,1560
2018-07-28T05:53:13.056Z,1604
2018-07-28T05:54:22.475Z,1588
2018-07-28T05:55:31.344Z,1592
2018-07-28T05:56:40.204Z,1612
2018-07-28T05:57:49.068Z,1636
2018-07-28T05:58:58.209Z,1660
2018-07-28T06:00:07.224Z,1656
2018-07-28T06:01:16.094Z,1652
2018-07-28T06:02:25.074Z,1700
2018-07-28T06:03:34.233Z,1800
2018-07-28T06:04:43.098Z,1852
2018-07-28T06:05:52.111Z,1864
2018-07-28T06:07:00.974Z,1880
2018-07-28T06:08:09.841Z,1896
2018-07-28T06:09:18.705Z,1924
2018-07-28T06:10:27.841Z,1948
2018-07-28T06:11:36.700Z,1976
2018-07-28T06:12:45.566Z,2004
2018-07-28T06:13:54.426Z,2044
2018-07-28T06:15:03.296Z,2104
2018-07-28T06:16:12.435Z,2200
2018-07-28T06:17:21.577Z,2332
2018-07-28T06:18:30.440Z,2528
2018-07-28T06:19:39.302Z,2736
2018-07-28T06:20:48.472Z,2912
2018-07-28T06:21:57.371Z,3012
2018-07-28T06:23:06.482Z,3012
2018-07-28T06:24:15.628Z,2884
2018-07-28T06:25:25.064Z,2648
2018-07-28T06:26:34.241Z,2384
2018-07-28T06:27:43.103Z,2216
2018-07-28T06:28:52.119Z,2136
2018-07-28T06:30:00.983Z,2132
2018-07-28T06:31:09.844Z,2160
2018-07-28T06:32:18.710Z,2212
2018-07-28T06:33:27.576Z,2284
2018-07-28T06:34:36.440Z,2344
2018-07-28T06:35:45.583Z,2380
2018-07-28T06:36:54.448Z,2444
2018-07-28T06:38:03.317Z,2548
2018-07-28T06:39:12.183Z,2680
2018-07-28T06:40:21.052Z,2932
2018-07-28T06:41:29.915Z,3264
2018-07-28T06:42:39.610Z,3660
2018-07-28T06:43:48.477Z,4000
2018-07-28T06:44:57.340Z,4176
2018-07-28T06:46:06.206Z,4100
2018-07-28T06:47:15.083Z,3836
2018-07-28T06:48:24.235Z,3504
2018-07-28T06:49:33.098Z,3264
2018-07-28T06:50:41.967Z,3212
2018-07-28T06:51:50.989Z,3380
2018-07-28T06:53:00.139Z,3796
2018-07-28T06:54:09.504Z,4424
2018-07-28T06:55:18.677Z,5144
2018-07-28T06:56:29.707Z,5848
2018-07-28T06:57:39.418Z,6144
2018-07-28T06:58:48.896Z,6220
2018-07-28T06:59:58.325Z,6236
2018-07-28T07:01:07.505Z,6252
2018-07-28T07:02:16.489Z,6304
2018-07-28T07:03:25.507Z,6136
2018-07-28T07:04:34.374Z,5856
2018-07-28T07:05:43.241Z,5556
2018-07-28T07:06:52.110Z,5300
2018-07-28T07:08:00.976Z,5120
2018-07-28T07:09:09.849Z,5076
2018-07-28T07:10:18.714Z,5148
2018-07-28T07:11:27.581Z,5300
2018-07-28T07:12:36.722Z,5400
2018-07-28T07:13:45.588Z,5424
2018-07-28T07:14:54.604Z,5392
2018-07-28T07:16:03.749Z,5292
2018-07-28T07:17:12.628Z,5188
2018-07-28T07:18:21.496Z,5064
2018-07-28T07:19:30.366Z,4896
2018-07-28T07:20:39.508Z,4720
2018-07-28T07:21:48.376Z,4592
2018-07-28T07:22:57.244Z,4504
2018-07-28T07:24:06.110Z,4416
2018-07-28T07:25:15.261Z,4372
2018-07-28T07:26:24.126Z,4372
2018-07-28T07:27:33.274Z,4444
2018-07-28T07:28:42.143Z,4556
2018-07-28T07:29:51.006Z,4688
2018-07-28T07:30:59.874Z,4820
2018-07-28T07:32:09.173Z,4928
2018-07-28T07:33:18.039Z,4956
2018-07-28T07:34:26.907Z,4944
2018-07-28T07:35:35.772Z,4844
2018-07-28T07:36:44.640Z,4672
2018-07-28T07:37:53.510Z,4460
2018-07-28T07:39:02.373Z,4336
2018-07-28T07:40:11.520Z,4424
2018-07-28T07:41:20.402Z,4716
2018-07-28T07:42:29.950Z,5076
2018-07-28T07:43:39.364Z,5352
2018-07-28T07:44:48.236Z,5508
2018-07-28T07:45:57.103Z,5592
2018-07-28T07:47:06.271Z,5672
2018-07-28T07:48:15.392Z,5712
2018-07-28T07:49:24.361Z,5708
2018-07-28T07:50:33.225Z,5704
2018-07-28T07:51:42.091Z,5660
2018-07-28T07:52:50.960Z,5620
2018-07-28T07:54:00.269Z,5612
2018-07-28T07:55:09.664Z,5672
2018-07-28T07:56:18.527Z,5784
2018-07-28T07:57:27.394Z,5916
2018-07-28T07:58:36.260Z,6072
2018-07-28T07:59:45.129Z,6232
2018-07-28T08:00:54.148Z,6424
2018-07-28T08:02:03.291Z,6672
2018-07-28T08:03:12.157Z,6976
2018-07-28T08:04:21.028Z,7356
2018-07-28T08:05:30.167Z,7596
2018-07-28T08:06:39.386Z,7568
2018-07-28T08:07:48.803Z,7424
2018-07-28T08:08:57.945Z,7380
2018-07-28T08:10:07.097Z,7508
2018-07-28T08:11:15.965Z,7668
2018-07-28T08:12:24.831Z,7772
2018-07-28T08:13:33.700Z,7800
2018-07-28T08:14:42.567Z,7864
2018-07-28T08:15:51.708Z,7956
2018-07-28T08:17:00.586Z,7968
2018-07-28T08:18:09.603Z,7804
2018-07-28T08:19:18.472Z,7596
2018-07-28T08:20:27.614Z,7484
2018-07-28T08:21:36.481Z,7540
2018-07-28T08:22:45.418Z,7616
2018-07-28T08:23:54.561Z,7560
2018-07-28T08:25:03.434Z,7420
2018-07-28T08:26:12.302Z,7264
2018-07-28T08:27:21.200Z,7224
2018-07-28T08:28:30.509Z,7396
2018-07-28T08:29:39.379Z,7776
2018-07-28T08:30:48.244Z,8320
2018-07-28T08:31:57.112Z,8852
2018-07-28T08:33:05.986Z,9268
2018-07-28T08:34:14.858Z,9452
2018-07-28T08:35:23.734Z,9460
2018-07-28T08:36:32.602Z,9460
2018-07-28T08:37:41.506Z,9416
2018-07-28T08:38:50.659Z,9440
2018-07-28T08:39:59.869Z,9604
2018-07-28T08:41:08.965Z,9736
2018-07-28T08:42:17.885Z,9876
2018-07-28T08:43:26.776Z,9796
2018-07-28T08:44:35.641Z,9360
2018-07-28T08:45:44.841Z,9292
2018-07-28T08:46:53.985Z,9320
2018-07-28T08:48:02.854Z,9384
2018-07-28T08:49:12.999Z,9408
2018-07-28T08:50:22.332Z,9400
2018-07-28T08:51:31.204Z,9300
2018-07-28T08:52:40.365Z,9236
2018-07-28T08:53:49.234Z,9224
2018-07-28T08:54:58.101Z,9152
2018-07-28T08:56:06.968Z,8976
2018-07-28T08:57:15.856Z,8656
2018-07-28T08:58:25.004Z,8168
2018-07-28T08:59:33.871Z,7548
2018-07-28T09:00:42.890Z,7004
2018-07-28T09:01:51.758Z,6596
2018-07-28T09:03:00.626Z,6156
2018-07-28T09:04:09.495Z,5700
2018-07-28T09:05:18.367Z,5312
2018-07-28T09:06:27.232Z,4884
2018-07-28T09:07:36.117Z,4652
2018-07-28T09:08:45.323Z,4312
2018-07-28T09:09:54.193Z,4436
2018-07-28T09:11:03.060Z,4812
2018-07-28T09:12:12.360Z,5184
2018-07-28T09:13:21.258Z,5352
2018-07-28T09:14:30.125Z,5268
2018-07-28T09:15:39.002Z,5872
2018-07-28T09:16:47.868Z,6268
2018-07-28T09:17:56.845Z,6744
2018-07-28T09:19:06.284Z,7000
2018-07-28T09:20:15.161Z,6944
2018-07-28T09:21:24.039Z,6592
2018-07-28T09:22:33.269Z,5848
2018-07-28T09:23:42.323Z,5464
2018-07-28T09:24:51.135Z,5348
2018-07-28T09:26:00.279Z,5760
2018-07-28T09:27:09.190Z,6024
2018-07-28T09:28:18.335Z,5888
2018-07-28T09:29:27.224Z,5844
2018-07-28T09:30:36.429Z,5956
2018-07-28T09:31:45.612Z,5764
2018-07-28T09:32:54.489Z,5644
2018-07-28T09:34:03.361Z,5728
2018-07-28T09:35:12.584Z,5804
2018-07-28T09:36:21.455Z,5924
2018-07-28T09:37:30.325Z,6208
2018-07-28T09:38:39.785Z,6468
2018-07-28T09:39:48.656Z,6956
2018-07-28T09:40:57.524Z,7564
2018-07-28T09:42:06.692Z,8240
2018-07-28T09:43:15.562Z,8976
2018-07-28T09:44:24.430Z,10084
2018-07-28T09:45:33.302Z,10968
2018-07-28T09:46:42.610Z,10568
2018-07-28T09:47:51.486Z,9956
2018-07-28T09:49:00.363Z,8892
2018-07-28T09:50:09.234Z,8420
2018-07-28T09:51:18.105Z,8536
2018-07-28T09:52:27.272Z,9180
2018-07-28T09:53:36.152Z,9680
2018-07-28T09:54:45.015Z,9968
2018-07-28T09:55:53.882Z,9912
2018-07-28T09:57:02.751Z,9296
2018-07-28T09:58:12.178Z,8624
2018-07-28T09:59:21.074Z,8184
2018-07-28T10:00:29.947Z,7760
2018-07-28T10:01:39.109Z,7816
2018-07-28T10:02:48.528Z,7976
2018-07-28T10:03:57.400Z,8548
2018-07-28T10:05:06.474Z,9348
2018-07-28T10:06:15.377Z,9632
2018-07-28T10:07:24.551Z,10176
2018-07-28T10:08:33.703Z,10284
2018-07-28T10:09:43.004Z,10084
2018-07-28T10:10:52.218Z,9596
2018-07-28T10:12:01.365Z,9128
2018-07-28T10:13:10.276Z,9112
2018-07-28T10:14:19.209Z,9412
2018-07-28T10:15:28.462Z,9756
2018-07-28T10:16:37.491Z,9992
2018-07-28T10:17:46.411Z,9592
2018-07-28T10:18:55.365Z,8548
2018-07-28T10:20:04.235Z,7416
2018-07-28T10:21:13.236Z,6336
2018-07-28T10:22:22.198Z,5520
2018-07-28T10:23:31.175Z,4996
2018-07-28T10:24:40.443Z,4772
2018-07-28T10:25:49.362Z,4908
2018-07-28T10:26:58.301Z,5420
2018-07-28T10:28:07.509Z,6172
2018-07-28T10:29:16.380Z,6784
2018-07-28T10:30:25.358Z,7120
2018-07-28T10:31:34.571Z,7276
2018-07-28T10:32:44.056Z,7392
2018-07-28T10:33:53.020Z,7584
2018-07-28T10:35:01.901Z,7572
2018-07-28T10:36:11.560Z,7836
2018-07-28T10:37:21.789Z,8064
2018-07-28T10:38:31.278Z,8264
2018-07-28T10:39:40.251Z,8188
2018-07-28T10:40:49.224Z,8084
2018-07-28T10:41:58.398Z,8096
2018-07-28T10:43:07.314Z,8128
2018-07-28T10:44:16.345Z,8156
2018-07-28T10:45:25.198Z,8304
2018-07-28T10:46:34.129Z,8776
2018-07-28T10:47:43.019Z,9204
2018-07-28T10:48:52.192Z,9320
2018-07-28T10:50:01.083Z,9512
2018-07-28T10:51:10.018Z,10224
2018-07-28T10:52:18.932Z,11112
2018-07-28T10:53:27.849Z,11968
2018-07-28T10:54:36.722Z,13064
2018-07-28T10:55:46.287Z,14332
2018-07-28T10:56:55.201Z,16480
2018-07-28T10:58:04.369Z,16368
2018-07-28T10:59:13.257Z,14716
2018-07-28T11:00:22.496Z,12896
2018-07-28T11:01:31.746Z,12020
2018-07-28T11:02:40.618Z,11688
2018-07-28T11:03:49.528Z,12512
2018-07-28T11:04:58.442Z,13016
2018-07-28T11:06:07.337Z,12740
2018-07-28T11:07:16.382Z,13204
2018-07-28T11:08:25.270Z,14728
2018-07-28T11:09:34.202Z,14700
2018-07-28T11:10:43.092Z,14004
2018-07-28T11:11:52.270Z,14660
2018-07-28T11:13:01.163Z,14516
2018-07-28T11:14:10.355Z,13540
2018-07-28T11:15:19.253Z,12004
2018-07-28T11:16:28.164Z,10648
2018-07-28T11:17:37.033Z,10204
2018-07-28T11:18:46.093Z,10580
2018-07-28T11:19:55.420Z,11904
2018-07-28T11:21:04.308Z,13700
2018-07-28T11:22:13.187Z,14380
2018-07-28T11:23:22.126Z,13708
2018-07-28T11:24:31.049Z,14864
2018-07-28T11:25:40.237Z,15668
2018-07-28T11:26:49.113Z,15752
2018-07-28T11:27:58.304Z,16088
2018-07-28T11:29:07.195Z,15804
2018-07-28T11:30:16.240Z,15476
2018-07-28T11:31:25.117Z,15120
2018-07-28T11:32:34.347Z,14432
2018-07-28T11:33:43.541Z,14088
2018-07-28T11:34:52.711Z,14572
2018-07-28T11:36:01.742Z,14804
2018-07-28T11:37:11.220Z,13332
2018-07-28T11:38:20.139Z,11424
2018-07-28T11:39:29.013Z,10296
2018-07-28T11:40:37.932Z,9784
2018-07-28T11:41:47.192Z,9280
2018-07-28T11:42:56.149Z,8316
2018-07-28T11:44:05.021Z,6852
2018-07-28T11:45:14.004Z,5268
2018-07-28T11:46:22.931Z,4136
2018-07-28T11:47:32.196Z,3868
2018-07-28T11:48:41.068Z,4368
2018-07-28T11:49:50.078Z,5116
2018-07-28T11:50:58.976Z,5868
2018-07-28T11:52:08.225Z,5620
2018-07-28T11:53:17.099Z,4792
2018-07-28T11:54:26.065Z,4080
2018-07-28T11:55:35.530Z,3752
2018-07-28T11:56:44.484Z,3848
2018-07-28T11:57:53.685Z,3704
2018-07-28T11:59:03.034Z,3696
2018-07-28T12:00:12.004Z,3820
2018-07-28T12:01:20.874Z,3356
2018-07-28T12:02:29.828Z,1952
2018-07-28T12:03:39.030Z,996
2018-07-28T12:04:48.017Z,684
2018-07-28T12:05:57.177Z,572
2018-07-28T12:07:06.211Z,560
2018-07-28T12:08:15.144Z,568
2018-07-28T12:09:24.115Z,684
2018-07-28T12:10:33.015Z,916
2018-07-28T12:11:41.970Z,1112
2018-07-28T12:12:51.209Z,1312
2018-07-28T12:14:00.128Z,1568
2018-07-28T12:15:09.027Z,2032
2018-07-28T12:16:18.014Z,2416
2018-07-28T12:17:26.949Z,2992
2018-07-28T12:18:36.277Z,3624
2018-07-28T12:19:45.521Z,4072
2018-07-28T12:20:54.858Z,4596
2018-07-28T12:22:03.808Z,5012
2018-07-28T12:23:12.768Z,5364
2018-07-28T12:24:21.672Z,5680
2018-07-28T12:25:30.687Z,5900
2018-07-28T12:26:39.604Z,7256
2018-07-28T12:27:48.517Z,17568
2018-07-28T12:28:57.677Z,43808
2018-07-28T12:30:06.606Z,29504
2018-07-28T12:31:15.470Z,20192
2018-07-28T12:32:24.384Z,20960
2018-07-28T12:33:33.406Z,19680
2018-07-28T12:34:42.434Z,18688
2018-07-28T12:35:51.769Z,18272
2018-07-28T12:37:00.936Z,18112
2018-07-28T12:38:09.826Z,17248
2018-07-28T12:39:19.085Z,16088
2018-07-28T12:40:28.003Z,15660
2018-07-28T12:41:37.145Z,15196
2018-07-28T12:42:46.033Z,13656
2018-07-28T12:43:54.942Z,11704
2018-07-28T12:45:03.991Z,9788
2018-07-28T12:46:12.879Z,8296
2018-07-28T12:47:21.756Z,7352
2018-07-28T12:48:30.680Z,6816
2018-07-28T12:49:39.545Z,6676
2018-07-28T12:50:48.566Z,6732
2018-07-28T12:51:57.441Z,6660
2018-07-28T12:53:06.975Z,6680
2018-07-28T12:54:15.876Z,7252
2018-07-28T12:55:25.706Z,8624
2018-07-28T12:56:34.641Z,10804
2018-07-28T12:57:43.533Z,15876
2018-07-28T12:58:52.768Z,17760
2018-07-28T13:00:01.653Z,25280
2018-07-28T13:01:10.676Z,23008
2018-07-28T13:02:19.831Z,22528
2018-07-28T13:03:28.796Z,32288
2018-07-28T13:04:37.670Z,39136
2018-07-28T13:05:46.629Z,57248
2018-07-28T13:06:55.553Z,33952
2018-07-28T13:08:04.498Z,29216
2018-07-28T13:09:13.368Z,28992
2018-07-28T13:10:22.306Z,63072
2018-07-28T13:11:31.255Z,55584
2018-07-28T13:12:40.504Z,67936
2018-07-28T13:13:49.736Z,60256
2018-07-28T13:14:58.732Z,61984
2018-07-28T13:16:07.680Z,61248
2018-07-28T13:17:17.223Z,60992
2018-07-28T13:18:26.159Z,64800
2018-07-28T13:19:35.261Z,61856
2018-07-28T13:20:44.150Z,59040
2018-07-28T13:21:53.132Z,59200
2018-07-28T13:23:02.005Z,24544
2018-07-28T13:24:10.996Z,18560
2018-07-28T13:25:19.982Z,19584
2018-07-28T13:26:28.946Z,43456
2018-07-28T13:27:37.819Z,53888
2018-07-28T13:28:46.850Z,37120
2018-07-28T13:29:56.606Z,21216
2018-07-28T13:31:05.445Z,20704
2018-07-28T13:32:14.339Z,12468
2018-07-28T13:33:23.551Z,8992
2018-07-28T13:34:32.457Z,7108
2018-07-28T13:35:41.630Z,6068
2018-07-28T13:36:50.545Z,5476
2018-07-28T13:37:59.482Z,5080
2018-07-28T13:39:08.360Z,4856
2018-07-28T13:40:17.255Z,4772
2018-07-28T13:41:26.462Z,4844
2018-07-28T13:42:35.709Z,4880
2018-07-28T13:43:44.960Z,4864
2018-07-28T13:44:53.833Z,4880
2018-07-28T13:46:02.739Z,4940
2018-07-28T13:47:11.925Z,5304
2018-07-28T13:48:21.750Z,5928
2018-07-28T13:49:30.660Z,6592
2018-07-28T13:50:39.577Z,7376
2018-07-28T13:51:48.491Z,7984
2018-07-28T13:52:57.511Z,7976
2018-07-28T13:54:06.380Z,7860
2018-07-28T13:55:15.247Z,8092
2018-07-28T13:56:24.114Z,8180
2018-07-28T13:57:32.982Z,8160
2018-07-28T13:58:41.849Z,8148
2018-07-28T13:59:50.714Z,8400
2018-07-28T14:00:59.582Z,8940
2018-07-28T14:02:08.450Z,9272
2018-07-28T14:03:17.645Z,9136
2018-07-28T14:04:26.793Z,8900
2018-07-28T14:05:36.090Z,9080
2018-07-28T14:06:44.956Z,7544
2018-07-28T14:07:54.097Z,7120
2018-07-28T14:09:02.965Z,7156
2018-07-28T14:10:11.831Z,7356
2018-07-28T14:11:20.697Z,7832
2018-07-28T14:12:29.565Z,8532
2018-07-28T14:13:38.428Z,9332
2018-07-28T14:14:47.356Z,10720
2018-07-28T14:15:56.744Z,15160
2018-07-28T14:17:05.759Z,16256
2018-07-28T14:18:15.070Z,15852
2018-07-28T14:19:24.223Z,16352
2018-07-28T14:20:33.373Z,18240
2018-07-28T14:21:42.517Z,23200
2018-07-28T14:22:51.382Z,19136
2018-07-28T14:24:00.253Z,17792
2018-07-28T14:25:09.120Z,18080
2018-07-28T14:26:17.984Z,17792
2018-07-28T14:27:27.165Z,19072
2018-07-28T14:28:36.275Z,19104
2018-07-28T14:29:45.141Z,19520
2018-07-28T14:30:54.282Z,18976
2018-07-28T14:32:03.427Z,21216
2018-07-28T14:33:12.567Z,28128
2018-07-28T14:34:21.533Z,24768
2018-07-28T14:35:30.406Z,27872
2018-07-28T14:36:39.272Z,19808
2018-07-28T14:37:48.141Z,18080
2018-07-28T14:38:57.009Z,21984
2018-07-28T14:40:06.507Z,28576
2018-07-28T14:41:15.372Z,26528
2018-07-28T14:42:24.240Z,33184
2018-07-28T14:43:33.382Z,40704
2018-07-28T14:44:42.527Z,40864
2018-07-28T14:45:51.429Z,30144
2018-07-28T14:47:00.534Z,21248
2018-07-28T14:48:09.412Z,18176
2018-07-28T14:49:18.285Z,14840
2018-07-28T14:50:27.433Z,12940
2018-07-28T14:51:36.300Z,10996
2018-07-28T14:52:45.440Z,9084
2018-07-28T14:53:54.310Z,7792
2018-07-28T14:55:03.193Z,6984
2018-07-28T14:56:12.641Z,6432
2018-07-28T14:57:21.862Z,6040
2018-07-28T14:58:30.735Z,5936
2018-07-28T14:59:39.600Z,6084
2018-07-28T15:00:48.741Z,6236
2018-07-28T15:01:57.607Z,6188
2018-07-28T15:03:06.475Z,6148
2018-07-28T15:04:15.348Z,6316
2018-07-28T15:05:24.492Z,6752
2018-07-28T15:06:33.360Z,7344
2018-07-28T15:07:42.503Z,8020
2018-07-28T15:08:51.794Z,8696
2018-07-28T15:10:00.661Z,9396
2018-07-28T15:11:09.804Z,10500
2018-07-28T15:12:18.669Z,13384
2018-07-28T15:13:27.535Z,16544
2018-07-28T15:14:36.552Z,17888
2018-07-28T15:15:45.427Z,27968
2018-07-28T15:16:54.570Z,41376
2018-07-28T15:18:03.440Z,31648
2018-07-28T15:19:12.309Z,30080
2018-07-28T15:20:21.174Z,51968
2018-07-28T15:21:30.112Z,22304
2018-07-28T15:22:38.913Z,75168
2018-07-28T15:23:47.785Z,75840
2018-07-28T15:24:56.932Z,74272
2018-07-28T15:26:05.804Z,69664
2018-07-28T15:27:14.674Z,69056
2018-07-28T15:28:23.554Z,69376
2018-07-28T15:29:32.699Z,59552
2018-07-28T15:30:41.570Z,66720
2018-07-28T15:31:50.998Z,56640
2018-07-28T15:33:00.148Z,61280
2018-07-28T15:34:09.020Z,64704
2018-07-28T15:35:17.896Z,64320